sensor_id;sensor_type;location;lat;lon;timestamp;pressure;altitude;pressure_sealevel;temperature;humidity
62600;BME280;48671;48.922;2.346;2023-03-03T00:01:26;101959.09;;;6.48;53.07
62600;BME280;48671;48.922;2.346;2023-03-03T00:03:52;101966.84;;;6.54;52.86
62600;BME280;48671;48.922;2.346;2023-03-03T00:06:19;101955.66;;;6.38;52.19
62600;BME280;48671;48.922;2.346;2023-03-03T00:08:45;101961.69;;;6.37;52.86
62600;BME280;48671;48.922;2.346;2023-03-03T00:11:11;101944.47;;;6.28;52.45
62600;BME280;48671;48.922;2.346;2023-03-03T00:13:47;101970.31;;;6.27;53.31
62600;BME280;48671;48.922;2.346;2023-03-03T00:18:50;101973.75;;;6.27;53.45
62600;BME280;48671;48.922;2.346;2023-03-03T00:21:26;101966.84;;;6.37;52.99
62600;BME280;48671;48.922;2.346;2023-03-03T00:23:54;101967.72;;;6.36;52.84
62600;BME280;48671;48.922;2.346;2023-03-03T00:26:30;101972.88;;;6.36;53.34
62600;BME280;48671;48.922;2.346;2023-03-03T00:28:55;101963.41;;;6.27;52.86
62600;BME280;48671;48.922;2.346;2023-03-03T00:31:34;101967.72;;;6.21;53.11
62600;BME280;48671;48.922;2.346;2023-03-03T00:34:20;101976.34;;;6.23;52.99
62600;BME280;48671;48.922;2.346;2023-03-03T00:36:54;101967.72;;;6.18;53.08
62600;BME280;48671;48.922;2.346;2023-03-03T00:39:26;101960.00;;;6.08;53.18
62600;BME280;48671;48.922;2.346;2023-03-03T00:41:53;101966.88;;;6.14;53.66
62600;BME280;48671;48.922;2.346;2023-03-03T00:44:51;101959.13;;;6.14;53.47
62600;BME280;48671;48.922;2.346;2023-03-03T00:47:36;101954.81;;;6.01;53.31
62600;BME280;48671;48.922;2.346;2023-03-03T00:52:34;101963.44;;;5.95;53.69
62600;BME280;48671;48.922;2.346;2023-03-03T00:55:00;101965.13;;;5.87;53.82
62600;BME280;48671;48.922;2.346;2023-03-03T00:57:25;101960.81;;;5.86;54.42
62600;BME280;48671;48.922;2.346;2023-03-03T00:59:50;101965.97;;;5.84;54.07
62600;BME280;48671;48.922;2.346;2023-03-03T01:02:16;101947.03;;;5.79;54.49
62600;BME280;48671;48.922;2.346;2023-03-03T01:04:43;101963.38;;;5.81;54.01
62600;BME280;48671;48.922;2.346;2023-03-03T01:07:12;101960.81;;;5.77;53.90
62600;BME280;48671;48.922;2.346;2023-03-03T01:09:37;101959.94;;;5.67;54.56
62600;BME280;48671;48.922;2.346;2023-03-03T01:12:03;101969.41;;;5.74;54.63
62600;BME280;48671;48.922;2.346;2023-03-03T01:14:28;101953.88;;;5.62;54.88
62600;BME280;48671;48.922;2.346;2023-03-03T01:16:53;101968.56;;;5.72;54.69
62600;BME280;48671;48.922;2.346;2023-03-03T01:19:19;101981.44;;;5.78;54.80
62600;BME280;48671;48.922;2.346;2023-03-03T01:21:44;101983.19;;;5.79;55.06
62600;BME280;48671;48.922;2.346;2023-03-03T01:24:09;101984.91;;;5.80;54.95
62600;BME280;48671;48.922;2.346;2023-03-03T01:26:35;101975.44;;;5.76;55.30
62600;BME280;48671;48.922;2.346;2023-03-03T01:29:00;101967.66;;;5.69;54.58
62600;BME280;48671;48.922;2.346;2023-03-03T01:31:25;101979.72;;;5.71;54.95
62600;BME280;48671;48.922;2.346;2023-03-03T01:33:51;101984.91;;;5.70;54.79
62600;BME280;48671;48.922;2.346;2023-03-03T01:36:22;101980.56;;;5.64;54.99
62600;BME280;48671;48.922;2.346;2023-03-03T01:38:48;101966.78;;;5.54;55.88
62600;BME280;48671;48.922;2.346;2023-03-03T01:41:13;101977.97;;;5.61;55.26
62600;BME280;48671;48.922;2.346;2023-03-03T01:43:43;101966.81;;;5.63;55.47
62600;BME280;48671;48.922;2.346;2023-03-03T01:48:41;101967.69;;;5.70;55.43
62600;BME280;48671;48.922;2.346;2023-03-03T01:51:17;101957.34;;;5.62;55.21
62600;BME280;48671;48.922;2.346;2023-03-03T01:53:50;101969.41;;;5.67;54.70
62600;BME280;48671;48.922;2.346;2023-03-03T01:56:17;101958.19;;;5.58;55.42
62600;BME280;48671;48.922;2.346;2023-03-03T01:58:46;101962.50;;;5.58;55.57
62600;BME280;48671;48.922;2.346;2023-03-03T02:01:18;101951.28;;;5.54;55.53
62600;BME280;48671;48.922;2.346;2023-03-03T02:03:44;101964.22;;;5.60;55.28
62600;BME280;48671;48.922;2.346;2023-03-03T02:06:13;101959.06;;;5.53;55.99
62600;BME280;48671;48.922;2.346;2023-03-03T02:08:56;101959.91;;;5.53;55.92
62600;BME280;48671;48.922;2.346;2023-03-03T02:11:24;101962.47;;;5.52;56.20
62600;BME280;48671;48.922;2.346;2023-03-03T02:13:51;101962.47;;;5.55;55.65
62600;BME280;48671;48.922;2.346;2023-03-03T02:16:16;101951.25;;;5.42;55.90
62600;BME280;48671;48.922;2.346;2023-03-03T02:18:41;101965.91;;;5.48;55.87
62600;BME280;48671;48.922;2.346;2023-03-03T02:21:15;101971.94;;;5.51;56.07
62600;BME280;48671;48.922;2.346;2023-03-03T02:26:31;101959.91;;;5.55;55.84
62600;BME280;48671;48.922;2.346;2023-03-03T02:28:58;101958.19;;;5.51;56.22
62600;BME280;48671;48.922;2.346;2023-03-03T02:31:26;101963.34;;;5.51;56.08
62600;BME280;48671;48.922;2.346;2023-03-03T02:33:53;101960.75;;;5.46;56.22
62600;BME280;48671;48.922;2.346;2023-03-03T02:36:23;101965.03;;;5.44;56.48
62600;BME280;48671;48.922;2.346;2023-03-03T02:44:05;101954.72;;;5.36;56.25
62600;BME280;48671;48.922;2.346;2023-03-03T02:46:33;101959.88;;;5.36;56.63
62600;BME280;48671;48.922;2.346;2023-03-03T02:49:00;101965.03;;;5.38;56.47
62600;BME280;48671;48.922;2.346;2023-03-03T02:51:25;101971.03;;;5.34;55.91
62600;BME280;48671;48.922;2.346;2023-03-03T02:53:51;101964.09;;;5.22;56.61
62600;BME280;48671;48.922;2.346;2023-03-03T02:56:16;101962.38;;;5.18;56.69
62600;BME280;48671;48.922;2.346;2023-03-03T02:58:41;101971.00;;;5.25;56.66
62600;BME280;48671;48.922;2.346;2023-03-03T03:01:07;101958.06;;;5.08;57.04
62600;BME280;48671;48.922;2.346;2023-03-03T03:03:32;101964.06;;;5.07;57.21
62600;BME280;48671;48.922;2.346;2023-03-03T03:05:58;101970.06;;;5.06;57.36
62600;BME280;48671;48.922;2.346;2023-03-03T03:08:23;101973.47;;;5.00;57.37
62600;BME280;48671;48.922;2.346;2023-03-03T03:10:49;101961.44;;;4.98;56.64
62600;BME280;48671;48.922;2.346;2023-03-03T03:13:14;101968.28;;;4.92;58.03
62600;BME280;48671;48.922;2.346;2023-03-03T03:15:40;101948.47;;;4.82;58.26
62600;BME280;48671;48.922;2.346;2023-03-03T03:18:05;101958.81;;;4.85;57.81
62600;BME280;48671;48.922;2.346;2023-03-03T03:20:35;101959.63;;;4.77;58.42
62600;BME280;48671;48.922;2.346;2023-03-03T03:23:01;101939.75;;;4.56;58.50
62600;BME280;48671;48.922;2.346;2023-03-03T03:25:26;101951.81;;;4.61;59.59
62600;BME280;48671;48.922;2.346;2023-03-03T03:27:51;101946.63;;;4.55;58.87
62600;BME280;48671;48.922;2.346;2023-03-03T03:30:16;101955.28;;;4.65;59.21
62600;BME280;48671;48.922;2.346;2023-03-03T03:32:45;101934.56;;;4.54;59.28
62600;BME280;48671;48.922;2.346;2023-03-03T03:35:10;101949.19;;;4.57;59.60
62600;BME280;48671;48.922;2.346;2023-03-03T03:37:35;101956.94;;;4.57;59.60
62600;BME280;48671;48.922;2.346;2023-03-03T03:40:01;101955.19;;;4.53;59.96
62600;BME280;48671;48.922;2.346;2023-03-03T03:42:26;101965.50;;;4.54;59.88
62600;BME280;48671;48.922;2.346;2023-03-03T03:44:52;101962.91;;;4.53;59.67
62600;BME280;48671;48.922;2.346;2023-03-03T03:47:17;101957.69;;;4.43;60.09
62600;BME280;48671;48.922;2.346;2023-03-03T03:49:42;101961.97;;;4.40;59.92
62600;BME280;48671;48.922;2.346;2023-03-03T03:52:07;101981.78;;;4.47;59.88
62600;BME280;48671;48.922;2.346;2023-03-03T03:54:33;101980.03;;;4.41;59.61
62600;BME280;48671;48.922;2.346;2023-03-03T03:56:59;101983.44;;;4.39;61.17
62600;BME280;48671;48.922;2.346;2023-03-03T03:59:24;101962.78;;;4.30;60.62
62600;BME280;48671;48.922;2.346;2023-03-03T04:01:49;101987.72;;;4.37;61.08
62600;BME280;48671;48.922;2.346;2023-03-03T04:04:15;101985.97;;;4.30;60.97
62600;BME280;48671;48.922;2.346;2023-03-03T04:06:41;101984.16;;;4.21;61.05
62600;BME280;48671;48.922;2.346;2023-03-03T04:09:06;101987.59;;;4.21;61.08
62600;BME280;48671;48.922;2.346;2023-03-03T04:11:32;101981.59;;;4.19;60.96
62600;BME280;48671;48.922;2.346;2023-03-03T04:13:57;101986.75;;;4.22;61.67
62600;BME280;48671;48.922;2.346;2023-03-03T04:16:22;101972.94;;;4.13;62.06
62600;BME280;48671;48.922;2.346;2023-03-03T04:18:47;101976.34;;;4.12;62.19
62600;BME280;48671;48.922;2.346;2023-03-03T04:21:14;101976.34;;;4.10;62.63
62600;BME280;48671;48.922;2.346;2023-03-03T04:23:39;101984.09;;;4.15;62.37
62600;BME280;48671;48.922;2.346;2023-03-03T04:26:05;101994.41;;;4.15;61.60
62600;BME280;48671;48.922;2.346;2023-03-03T04:28:30;101991.78;;;4.07;62.98
62600;BME280;48671;48.922;2.346;2023-03-03T04:30:56;101989.22;;;4.06;62.57
62600;BME280;48671;48.922;2.346;2023-03-03T04:33:21;102002.13;;;4.15;61.52
62600;BME280;48671;48.922;2.346;2023-03-03T04:35:46;101998.69;;;4.10;62.21
62600;BME280;48671;48.922;2.346;2023-03-03T04:38:12;101999.53;;;4.10;61.96
62600;BME280;48671;48.922;2.346;2023-03-03T04:40:40;102014.16;;;4.13;63.03
62600;BME280;48671;48.922;2.346;2023-03-03T04:43:06;102005.53;;;4.09;62.45
62600;BME280;48671;48.922;2.346;2023-03-03T04:45:31;101993.44;;;4.02;62.20
62600;BME280;48671;48.922;2.346;2023-03-03T04:47:56;101996.88;;;3.99;63.33
62600;BME280;48671;48.922;2.346;2023-03-03T04:50:22;101992.56;;;3.97;62.21
62600;BME280;48671;48.922;2.346;2023-03-03T04:52:47;102001.06;;;3.91;63.10
62600;BME280;48671;48.922;2.346;2023-03-03T04:55:12;102008.78;;;3.87;63.88
62600;BME280;48671;48.922;2.346;2023-03-03T04:57:38;102003.59;;;3.84;63.51
62600;BME280;48671;48.922;2.346;2023-03-03T05:00:04;102001.88;;;3.84;63.28
62600;BME280;48671;48.922;2.346;2023-03-03T05:02:30;101995.81;;;3.78;63.59
62600;BME280;48671;48.922;2.346;2023-03-03T05:04:56;102005.28;;;3.82;63.58
62600;BME280;48671;48.922;2.346;2023-03-03T05:07:21;101998.41;;;3.82;63.39
62600;BME280;48671;48.922;2.346;2023-03-03T05:09:46;101993.22;;;3.79;64.00
62600;BME280;48671;48.922;2.346;2023-03-03T05:12:12;102014.78;;;3.89;63.92
62600;BME280;48671;48.922;2.346;2023-03-03T05:14:37;102007.03;;;3.86;63.86
62600;BME280;48671;48.922;2.346;2023-03-03T05:17:02;102008.66;;;3.78;63.01
62600;BME280;48671;48.922;2.346;2023-03-03T05:19:28;102006.91;;;3.75;63.96
62600;BME280;48671;48.922;2.346;2023-03-03T05:21:54;102008.66;;;3.76;63.31
62600;BME280;48671;48.922;2.346;2023-03-03T05:24:19;101995.59;;;3.59;63.60
62600;BME280;48671;48.922;2.346;2023-03-03T05:26:44;101993.94;;;3.64;63.94
62600;BME280;48671;48.922;2.346;2023-03-03T05:29:10;102007.69;;;3.65;64.57
62600;BME280;48671;48.922;2.346;2023-03-03T05:31:35;102009.47;;;3.70;63.19
62600;BME280;48671;48.922;2.346;2023-03-03T05:34:01;102010.25;;;3.65;64.69
62600;BME280;48671;48.922;2.346;2023-03-03T05:36:26;102014.56;;;3.69;64.41
62600;BME280;48671;48.922;2.346;2023-03-03T05:38:52;101993.91;;;3.61;64.63
62600;BME280;48671;48.922;2.346;2023-03-03T05:41:17;102006.03;;;3.70;63.89
62600;BME280;48671;48.922;2.346;2023-03-03T05:43:42;102008.53;;;3.65;63.92
62600;BME280;48671;48.922;2.346;2023-03-03T05:46:09;102025.72;;;3.69;63.91
62600;BME280;48671;48.922;2.346;2023-03-03T05:48:34;102019.69;;;3.64;64.88
62600;BME280;48671;48.922;2.346;2023-03-03T05:50:59;102009.34;;;3.60;64.43
62600;BME280;48671;48.922;2.346;2023-03-03T05:53:26;102017.94;;;3.62;64.20
62600;BME280;48671;48.922;2.346;2023-03-03T05:55:51;102028.31;;;3.66;64.64
62600;BME280;48671;48.922;2.346;2023-03-03T05:58:17;102019.72;;;3.67;64.25
62600;BME280;48671;48.922;2.346;2023-03-03T06:00:42;102019.69;;;3.66;64.47
62600;BME280;48671;48.922;2.346;2023-03-03T06:03:08;102011.00;;;3.56;65.33
62600;BME280;48671;48.922;2.346;2023-03-03T06:05:33;102017.00;;;3.54;64.96
62600;BME280;48671;48.922;2.346;2023-03-03T06:07:58;102024.72;;;3.54;65.83
62600;BME280;48671;48.922;2.346;2023-03-03T06:10:24;102019.50;;;3.47;64.88
62600;BME280;48671;48.922;2.346;2023-03-03T06:12:49;102017.78;;;3.48;64.65
62600;BME280;48671;48.922;2.346;2023-03-03T06:15:15;102025.47;;;3.46;65.25
62600;BME280;48671;48.922;2.346;2023-03-03T06:17:40;102017.75;;;3.43;64.58
62600;BME280;48671;48.922;2.346;2023-03-03T06:20:06;102028.94;;;3.47;64.97
62600;BME280;48671;48.922;2.346;2023-03-03T06:22:31;102037.56;;;3.52;65.64
62600;BME280;48671;48.922;2.346;2023-03-03T06:24:57;102034.94;;;3.49;65.15
62600;BME280;48671;48.922;2.346;2023-03-03T06:27:22;102022.91;;;3.46;64.26
62600;BME280;48671;48.922;2.346;2023-03-03T06:29:47;102031.50;;;3.47;64.93
62600;BME280;48671;48.922;2.346;2023-03-03T06:32:13;102041.84;;;3.50;66.01
62600;BME280;48671;48.922;2.346;2023-03-03T06:34:38;102034.78;;;3.35;65.88
62600;BME280;48671;48.922;2.346;2023-03-03T06:37:04;102051.16;;;3.40;65.77
62600;BME280;48671;48.922;2.346;2023-03-03T06:39:29;102052.03;;;3.41;64.60
62600;BME280;48671;48.922;2.346;2023-03-03T06:41:54;102034.72;;;3.29;64.99
62600;BME280;48671;48.922;2.346;2023-03-03T06:44:20;102058.75;;;3.33;65.49
62600;BME280;48671;48.922;2.346;2023-03-03T06:46:45;102065.66;;;3.34;65.78
62600;BME280;48671;48.922;2.346;2023-03-03T06:49:10;102049.16;;;3.19;66.55
62600;BME280;48671;48.922;2.346;2023-03-03T06:51:38;102068.16;;;3.29;65.81
62600;BME280;48671;48.922;2.346;2023-03-03T06:54:14;102074.97;;;3.25;66.78
62600;BME280;48671;48.922;2.346;2023-03-03T06:56:41;102081.06;;;3.31;66.57
62600;BME280;48671;48.922;2.346;2023-03-03T07:01:37;102080.09;;;3.25;66.59
62600;BME280;48671;48.922;2.346;2023-03-03T07:04:24;102095.59;;;3.28;66.05
62600;BME280;48671;48.922;2.346;2023-03-03T07:06:50;102088.69;;;3.24;66.46
62600;BME280;48671;48.922;2.346;2023-03-03T07:09:24;102092.06;;;3.22;67.34
62600;BME280;48671;48.922;2.346;2023-03-03T07:12:04;102102.44;;;3.28;66.79
62600;BME280;48671;48.922;2.346;2023-03-03T07:14:31;102095.59;;;3.28;66.26
62600;BME280;48671;48.922;2.346;2023-03-03T07:17:03;102110.22;;;3.31;66.34
62600;BME280;48671;48.922;2.346;2023-03-03T07:19:32;102112.75;;;3.29;66.73
62600;BME280;48671;48.922;2.346;2023-03-03T07:22:00;102109.34;;;3.32;67.18
62600;BME280;48671;48.922;2.346;2023-03-03T07:24:32;102118.88;;;3.38;66.77
62600;BME280;48671;48.922;2.346;2023-03-03T07:29:29;102112.78;;;3.33;66.60
62600;BME280;48671;48.922;2.346;2023-03-03T07:31:56;102125.78;;;3.42;66.28
62600;BME280;48671;48.922;2.346;2023-03-03T07:34:26;102121.53;;;3.44;66.75
62600;BME280;48671;48.922;2.346;2023-03-03T07:36:57;102125.81;;;3.46;66.24
62600;BME280;48671;48.922;2.346;2023-03-03T07:39:30;102129.34;;;3.51;67.26
62600;BME280;48671;48.922;2.346;2023-03-03T07:42:08;102127.72;;;3.58;67.43
62600;BME280;48671;48.922;2.346;2023-03-03T07:44:36;102126.00;;;3.59;66.45
62600;BME280;48671;48.922;2.346;2023-03-03T07:47:19;102143.16;;;3.57;66.27
62600;BME280;48671;48.922;2.346;2023-03-03T07:49:46;102131.91;;;3.53;65.86
62600;BME280;48671;48.922;2.346;2023-03-03T07:52:41;102143.16;;;3.57;66.28
62600;BME280;48671;48.922;2.346;2023-03-03T07:55:29;102146.63;;;3.62;67.06
62600;BME280;48671;48.922;2.346;2023-03-03T07:58:00;102144.03;;;3.60;66.63
62600;BME280;48671;48.922;2.346;2023-03-03T08:03:15;102146.66;;;3.63;66.34
62600;BME280;48671;48.922;2.346;2023-03-03T08:05:43;102150.09;;;3.64;66.96
62600;BME280;48671;48.922;2.346;2023-03-03T08:10:47;102157.78;;;3.62;66.41
62600;BME280;48671;48.922;2.346;2023-03-03T08:15:41;102160.38;;;3.65;66.17
62600;BME280;48671;48.922;2.346;2023-03-03T08:18:43;102169.09;;;3.73;66.61
62600;BME280;48671;48.922;2.346;2023-03-03T08:21:15;102166.50;;;3.73;66.15
62600;BME280;48671;48.922;2.346;2023-03-03T08:23:42;102163.94;;;3.75;66.10
62600;BME280;48671;48.922;2.346;2023-03-03T08:26:07;102170.84;;;3.76;66.08
62600;BME280;48671;48.922;2.346;2023-03-03T08:28:33;102175.19;;;3.82;65.88
62600;BME280;48671;48.922;2.346;2023-03-03T08:30:59;102164.88;;;3.82;66.32
62600;BME280;48671;48.922;2.346;2023-03-03T08:33:24;102164.06;;;3.86;66.39
62600;BME280;48671;48.922;2.346;2023-03-03T08:35:50;102171.00;;;3.91;65.84
62600;BME280;48671;48.922;2.346;2023-03-03T08:38:17;102181.41;;;3.97;66.23
62600;BME280;48671;48.922;2.346;2023-03-03T08:40:44;102176.25;;;3.96;65.37
62600;BME280;48671;48.922;2.346;2023-03-03T08:43:10;102177.09;;;3.96;65.96
62600;BME280;48671;48.922;2.346;2023-03-03T08:45:35;102178.06;;;4.08;66.04
62600;BME280;48671;48.922;2.346;2023-03-03T08:48:01;102173.91;;;4.17;65.58
62600;BME280;48671;48.922;2.346;2023-03-03T08:50:28;102180.81;;;4.21;65.56
62600;BME280;48671;48.922;2.346;2023-03-03T08:52:53;102182.59;;;4.27;66.10
62600;BME280;48671;48.922;2.346;2023-03-03T08:55:19;102180.94;;;4.32;65.63
62600;BME280;48671;48.922;2.346;2023-03-03T08:57:44;102184.44;;;4.40;65.25
62600;BME280;48671;48.922;2.346;2023-03-03T09:00:13;102193.09;;;4.45;65.28
62600;BME280;48671;48.922;2.346;2023-03-03T09:02:39;102190.53;;;4.47;65.09
62600;BME280;48671;48.922;2.346;2023-03-03T09:05:05;102178.50;;;4.47;64.85
62600;BME280;48671;48.922;2.346;2023-03-03T09:07:31;102187.22;;;4.59;65.03
62600;BME280;48671;48.922;2.346;2023-03-03T09:09:57;102179.50;;;4.62;64.61
62600;BME280;48671;48.922;2.346;2023-03-03T09:12:29;102183.09;;;4.79;64.32
62600;BME280;48671;48.922;2.346;2023-03-03T09:14:57;102183.19;;;4.88;64.05
62600;BME280;48671;48.922;2.346;2023-03-03T09:17:29;102182.41;;;5.00;63.23
62600;BME280;48671;48.922;2.346;2023-03-03T09:19:59;102177.41;;;5.20;63.68
62600;BME280;48671;48.922;2.346;2023-03-03T09:22:27;102183.63;;;5.50;63.61
62600;BME280;48671;48.922;2.346;2023-03-03T09:24:56;102194.94;;;5.75;62.92
62600;BME280;48671;48.922;2.346;2023-03-03T09:27:28;102188.16;;;5.94;62.31
62600;BME280;48671;48.922;2.346;2023-03-03T09:29:56;102184.78;;;6.15;61.33
62600;BME280;48671;48.922;2.346;2023-03-03T09:32:33;102194.34;;;6.28;61.07
62600;BME280;48671;48.922;2.346;2023-03-03T09:35:00;102188.31;;;6.40;60.92
62600;BME280;48671;48.922;2.346;2023-03-03T09:37:47;102198.69;;;6.55;60.36
62600;BME280;48671;48.922;2.346;2023-03-03T09:51:57;102197.75;;;6.22;59.44
62600;BME280;48671;48.922;2.346;2023-03-03T10:08:56;102204.72;;;6.49;58.77
62600;BME280;48671;48.922;2.346;2023-03-03T10:11:48;102218.56;;;6.77;59.02
62600;BME280;48671;48.922;2.346;2023-03-03T10:14:39;102203.06;;;7.10;56.79
62600;BME280;48671;48.922;2.346;2023-03-03T10:20:16;102208.13;;;7.63;57.21
62600;BME280;48671;48.922;2.346;2023-03-03T10:23:10;102220.97;;;7.98;56.74
62600;BME280;48671;48.922;2.346;2023-03-03T10:25:39;102218.28;;;8.17;55.80
62600;BME280;48671;48.922;2.346;2023-03-03T10:31:33;102215.53;;;8.57;54.62
62600;BME280;48671;48.922;2.346;2023-03-03T10:34:20;102222.25;;;8.85;54.33
62600;BME280;48671;48.922;2.346;2023-03-03T10:45:22;102216.34;;;9.64;52.27
62600;BME280;48671;48.922;2.346;2023-03-03T10:50:43;102213.53;;;9.82;50.66
62600;BME280;48671;48.922;2.346;2023-03-03T10:53:20;102216.88;;;9.93;50.44
62600;BME280;48671;48.922;2.346;2023-03-03T11:11:46;102217.22;;;10.95;47.08
62600;BME280;48671;48.922;2.346;2023-03-03T11:14:25;102212.81;;;10.99;48.52
62600;BME280;48671;48.922;2.346;2023-03-03T11:17:15;102209.88;;;11.17;47.13
62600;BME280;48671;48.922;2.346;2023-03-03T11:33:21;102200.31;;;12.09;46.78
62600;BME280;48671;48.922;2.346;2023-03-03T11:36:16;102195.16;;;12.06;45.58
62600;BME280;48671;48.922;2.346;2023-03-03T11:38:56;102192.22;;;12.22;45.22
62600;BME280;48671;48.922;2.346;2023-03-03T11:44:04;102191.25;;;12.26;43.36
62600;BME280;48671;48.922;2.346;2023-03-03T11:46:49;102196.34;;;12.32;44.67
62600;BME280;48671;48.922;2.346;2023-03-03T11:49:39;102189.88;;;12.48;45.27
62600;BME280;48671;48.922;2.346;2023-03-03T11:52:24;102191.19;;;12.68;44.63
62600;BME280;48671;48.922;2.346;2023-03-03T11:54:59;102189.34;;;12.73;43.70
62600;BME280;48671;48.922;2.346;2023-03-03T11:57:49;102188.94;;;12.88;44.10
62600;BME280;48671;48.922;2.346;2023-03-03T12:00:56;102184.88;;;13.10;42.41
62600;BME280;48671;48.922;2.346;2023-03-03T12:12:32;102167.66;;;13.69;41.99
62600;BME280;48671;48.922;2.346;2023-03-03T12:15:22;102150.00;;;13.77;41.72
62600;BME280;48671;48.922;2.346;2023-03-03T12:21:13;102164.84;;;14.06;40.69
62600;BME280;48671;48.922;2.346;2023-03-03T12:24:04;102154.88;;;14.17;41.15
62600;BME280;48671;48.922;2.346;2023-03-03T12:29:24;102158.00;;;14.30;40.92
62600;BME280;48671;48.922;2.346;2023-03-03T12:34:43;102142.56;;;14.49;40.17
62600;BME280;48671;48.922;2.346;2023-03-03T12:40:23;102153.56;;;14.60;39.51
62600;BME280;48671;48.922;2.346;2023-03-03T12:48:11;102160.97;;;13.90;39.44
62600;BME280;48671;48.922;2.346;2023-03-03T12:56:07;102149.38;;;12.69;40.98
62600;BME280;48671;48.922;2.346;2023-03-03T12:58:59;102143.59;;;12.56;41.37
62600;BME280;48671;48.922;2.346;2023-03-03T13:12:12;102133.06;;;12.94;41.23
62600;BME280;48671;48.922;2.346;2023-03-03T13:17:31;102127.06;;;13.85;39.69
62600;BME280;48671;48.922;2.346;2023-03-03T13:20:02;102133.44;;;14.06;37.13
62600;BME280;48671;48.922;2.346;2023-03-03T13:22:41;102113.63;;;13.97;38.63
62600;BME280;48671;48.922;2.346;2023-03-03T13:25:33;102122.19;;;14.31;38.88
62600;BME280;48671;48.922;2.346;2023-03-03T13:30:48;102119.38;;;14.90;37.11
62600;BME280;48671;48.922;2.346;2023-03-03T13:36:02;102110.50;;;15.19;37.53
62600;BME280;48671;48.922;2.346;2023-03-03T13:38:33;102111.97;;;15.51;37.01
62600;BME280;48671;48.922;2.346;2023-03-03T13:43:37;102113.94;;;15.91;36.23
62600;BME280;48671;48.922;2.346;2023-03-03T13:46:32;102118.66;;;16.05;35.75
62600;BME280;48671;48.922;2.346;2023-03-03T13:52:02;102115.50;;;16.19;34.36
62600;BME280;48671;48.922;2.346;2023-03-03T14:03:45;102108.59;;;16.17;34.37
62600;BME280;48671;48.922;2.346;2023-03-03T14:05:56;102109.41;;;16.19;34.17
62600;BME280;48671;48.922;2.346;2023-03-03T14:14:03;102113.16;;;16.33;34.71
62600;BME280;48671;48.922;2.346;2023-03-03T14:16:51;102112.09;;;16.59;33.54
62600;BME280;48671;48.922;2.346;2023-03-03T14:19:27;102112.25;;;16.77;34.00
62600;BME280;48671;48.922;2.346;2023-03-03T14:24:21;102110.91;;;16.89;33.47
62600;BME280;48671;48.922;2.346;2023-03-03T14:31:53;102106.75;;;16.83;33.59
62600;BME280;48671;48.922;2.346;2023-03-03T14:36:49;102096.19;;;16.62;33.45
62600;BME280;48671;48.922;2.346;2023-03-03T14:39:34;102097.03;;;16.85;33.64
62600;BME280;48671;48.922;2.346;2023-03-03T14:42:14;102106.28;;;16.94;33.28
62600;BME280;48671;48.922;2.346;2023-03-03T14:44:54;102106.09;;;16.98;33.88
62600;BME280;48671;48.922;2.346;2023-03-03T14:47:22;102102.81;;;16.93;32.78
62600;BME280;48671;48.922;2.346;2023-03-03T14:49:49;102107.88;;;16.98;34.50
62600;BME280;48671;48.922;2.346;2023-03-03T14:54:42;102097.38;;;16.98;33.52
62600;BME280;48671;48.922;2.346;2023-03-03T15:00:03;102087.25;;;16.67;33.37
62600;BME280;48671;48.922;2.346;2023-03-03T15:05:27;102089.59;;;16.32;33.53
62600;BME280;48671;48.922;2.346;2023-03-03T15:07:57;102093.31;;;16.26;33.49
62600;BME280;48671;48.922;2.346;2023-03-03T15:18:17;102094.06;;;16.30;33.06
62600;BME280;48671;48.922;2.346;2023-03-03T15:31:28;102105.97;;;15.48;34.16
62600;BME280;48671;48.922;2.346;2023-03-03T15:36:46;102112.34;;;14.92;34.70
62600;BME280;48671;48.922;2.346;2023-03-03T15:42:14;102112.84;;;14.50;35.48
62600;BME280;48671;48.922;2.346;2023-03-03T15:47:41;102121.22;;;14.05;36.12
62600;BME280;48671;48.922;2.346;2023-03-03T15:53:11;102119.66;;;13.40;36.96
62600;BME280;48671;48.922;2.346;2023-03-03T15:58:44;102125.16;;;12.97;38.25
62600;BME280;48671;48.922;2.346;2023-03-03T16:03:58;102120.25;;;12.49;39.34
62600;BME280;48671;48.922;2.346;2023-03-03T16:06:46;102118.13;;;12.29;39.77
62600;BME280;48671;48.922;2.346;2023-03-03T16:12:46;102130.97;;;11.99;41.09
62600;BME280;48671;48.922;2.346;2023-03-03T16:15:43;102125.19;;;11.83;40.76
62600;BME280;48671;48.922;2.346;2023-03-03T16:24:49;102140.28;;;11.24;41.96
62600;BME280;48671;48.922;2.346;2023-03-03T16:29:21;102145.91;;;11.02;42.29
62600;BME280;48671;48.922;2.346;2023-03-03T16:34:59;102158.56;;;10.71;42.57
62600;BME280;48671;48.922;2.346;2023-03-03T16:37:28;102159.59;;;10.61;43.26
62600;BME280;48671;48.922;2.346;2023-03-03T16:40:10;102163.16;;;10.55;43.12
62600;BME280;48671;48.922;2.346;2023-03-03T16:42:35;102161.41;;;10.56;42.92
62600;BME280;48671;48.922;2.346;2023-03-03T16:45:05;102167.44;;;10.60;43.43
62600;BME280;48671;48.922;2.346;2023-03-03T16:50:36;102180.47;;;10.58;43.38
62600;BME280;48671;48.922;2.346;2023-03-03T16:58:29;102180.94;;;10.24;43.58
62600;BME280;48671;48.922;2.346;2023-03-03T17:06:57;102187.44;;;9.90;44.58
62600;BME280;48671;48.922;2.346;2023-03-03T17:15:11;102198.91;;;9.73;44.87
62600;BME280;48671;48.922;2.346;2023-03-03T17:20:28;102211.25;;;9.51;45.01
62600;BME280;48671;48.922;2.346;2023-03-03T17:23:07;102215.75;;;9.38;45.20
62600;BME280;48671;48.922;2.346;2023-03-03T17:26:00;102221.94;;;9.24;45.46
62600;BME280;48671;48.922;2.346;2023-03-03T17:31:16;102230.66;;;9.15;45.89
62600;BME280;48671;48.922;2.346;2023-03-03T17:34:14;102237.53;;;9.22;45.81
62600;BME280;48671;48.922;2.346;2023-03-03T17:39:49;102245.31;;;9.24;45.83
62600;BME280;48671;48.922;2.346;2023-03-03T17:42:46;102252.25;;;9.20;46.09
62600;BME280;48671;48.922;2.346;2023-03-03T17:45:16;102252.31;;;9.14;46.51
62600;BME280;48671;48.922;2.346;2023-03-03T17:47:46;102254.94;;;9.12;46.44